DAUH/HME METAR and TAF weather

Enter ICAO airport designator
Station Type Date Time Source
DAUH METAR 2018/07/20 14:30 UTC NOAA

DAUH 201430Z 31007KT 7000 SCT040 49/08 Q1010


Station Type Date Time Source
DAUH Decoded METAR 2018/07/20 14:30 UTC NOAA

Hassi-Messaoud, Algeria (DAUH) 31-40N 006-09E 142M
Jul 20, 2018 - 10:30 AM EDT / 2018.07.20 1430 UTC
Wind: from the NW (310 degrees) at 8 MPH (7 KT):0
Visibility: 4 mile(s):0
Sky conditions: partly cloudy
Temperature: 120 F (49 C)
Dew Point: 46 F (8 C)
Relative Humidity: 9%
Pressure (altimeter): 29.83 in. Hg (1010 hPa)
ob: DAUH 201430Z 31007KT 7000 SCT040 49/08 Q1010
cycle: 14

Station Type Date Time Source
DAUH TAF 2018/07/20 12:33 UTC NOAA

TAF DAUH 201100Z 2012/2112 19008KT 6000 NSC PROB30
TEMPO 2012/2016 5000 HZ
BECMG 2015/2018 VRB02KT
BECMG 2018/2021 09010KT
BECMG 2106/2110 15010KT


Example: see airport list